sensor_id;sensor_type;location;lat;lon;timestamp;P1;durP1;ratioP1;P2;durP2;ratioP2
11893;SDS011;6006;49.696;8.662;2023-07-29T00:01:30;4.47;;;2.80;;
11893;SDS011;6006;49.696;8.662;2023-07-29T00:03:57;3.80;;;2.40;;
11893;SDS011;6006;49.696;8.662;2023-07-29T00:06:24;2.60;;;2.33;;
11893;SDS011;6006;49.696;8.662;2023-07-29T00:08:51;3.50;;;2.80;;
11893;SDS011;6006;49.696;8.662;2023-07-29T00:11:17;3.47;;;2.60;;
11893;SDS011;6006;49.696;8.662;2023-07-29T00:13:46;3.90;;;3.25;;
11893;SDS011;6006;49.696;8.662;2023-07-29T00:16:15;4.60;;;2.70;;
11893;SDS011;6006;49.696;8.662;2023-07-29T00:18:42;4.03;;;2.67;;
11893;SDS011;6006;49.696;8.662;2023-07-29T00:21:09;2.33;;;2.22;;
11893;SDS011;6006;49.696;8.662;2023-07-29T00:23:36;4.30;;;3.13;;
11893;SDS011;6006;49.696;8.662;2023-07-29T00:26:03;5.50;;;4.30;;
11893;SDS011;6006;49.696;8.662;2023-07-29T00:28:30;4.18;;;3.20;;
11893;SDS011;6006;49.696;8.662;2023-07-29T00:30:58;3.30;;;2.83;;
11893;SDS011;6006;49.696;8.662;2023-07-29T00:33:31;2.50;;;2.30;;
11893;SDS011;6006;49.696;8.662;2023-07-29T00:35:58;2.80;;;2.50;;
11893;SDS011;6006;49.696;8.662;2023-07-29T00:38:26;3.10;;;2.15;;
11893;SDS011;6006;49.696;8.662;2023-07-29T00:40:53;2.65;;;2.50;;
11893;SDS011;6006;49.696;8.662;2023-07-29T00:43:20;3.13;;;2.80;;
11893;SDS011;6006;49.696;8.662;2023-07-29T00:45:47;3.50;;;2.33;;
11893;SDS011;6006;49.696;8.662;2023-07-29T00:48:15;4.32;;;2.65;;
11893;SDS011;6006;49.696;8.662;2023-07-29T00:50:42;2.40;;;2.30;;
11893;SDS011;6006;49.696;8.662;2023-07-29T00:53:09;2.83;;;2.60;;
11893;SDS011;6006;49.696;8.662;2023-07-29T00:55:36;3.20;;;2.90;;
11893;SDS011;6006;49.696;8.662;2023-07-29T00:58:03;2.50;;;2.30;;
11893;SDS011;6006;49.696;8.662;2023-07-29T01:00:30;2.75;;;2.33;;
11893;SDS011;6006;49.696;8.662;2023-07-29T01:02:57;4.20;;;2.40;;
11893;SDS011;6006;49.696;8.662;2023-07-29T01:05:26;4.60;;;2.55;;
11893;SDS011;6006;49.696;8.662;2023-07-29T01:08:03;2.17;;;2.08;;
11893;SDS011;6006;49.696;8.662;2023-07-29T01:10:37;3.70;;;2.25;;
11893;SDS011;6006;49.696;8.662;2023-07-29T01:13:13;2.80;;;2.20;;
11893;SDS011;6006;49.696;8.662;2023-07-29T01:15:46;2.15;;;2.05;;
11893;SDS011;6006;49.696;8.662;2023-07-29T01:18:18;2.53;;;1.65;;
11893;SDS011;6006;49.696;8.662;2023-07-29T01:20:50;2.10;;;2.00;;
11893;SDS011;6006;49.696;8.662;2023-07-29T01:23:25;3.50;;;1.75;;
11893;SDS011;6006;49.696;8.662;2023-07-29T01:25:52;1.80;;;1.70;;
11893;SDS011;6006;49.696;8.662;2023-07-29T01:28:19;1.48;;;1.40;;
11893;SDS011;6006;49.696;8.662;2023-07-29T01:30:46;2.80;;;1.83;;
11893;SDS011;6006;49.696;8.662;2023-07-29T01:33:20;1.52;;;1.42;;
11893;SDS011;6006;49.696;8.662;2023-07-29T01:35:52;1.55;;;1.45;;
11893;SDS011;6006;49.696;8.662;2023-07-29T01:38:28;2.13;;;1.90;;
11893;SDS011;6006;49.696;8.662;2023-07-29T01:40:58;2.00;;;1.90;;
11893;SDS011;6006;49.696;8.662;2023-07-29T01:43:27;1.98;;;1.70;;
11893;SDS011;6006;49.696;8.662;2023-07-29T01:45:54;1.45;;;1.27;;
11893;SDS011;6006;49.696;8.662;2023-07-29T01:48:21;1.92;;;1.70;;
11893;SDS011;6006;49.696;8.662;2023-07-29T01:50:48;1.60;;;1.20;;
11893;SDS011;6006;49.696;8.662;2023-07-29T01:53:15;1.63;;;1.48;;
11893;SDS011;6006;49.696;8.662;2023-07-29T01:55:44;1.33;;;1.10;;
11893;SDS011;6006;49.696;8.662;2023-07-29T01:58:11;1.75;;;1.60;;
11893;SDS011;6006;49.696;8.662;2023-07-29T02:00:38;2.83;;;1.63;;
11893;SDS011;6006;49.696;8.662;2023-07-29T02:03:05;1.80;;;1.70;;
11893;SDS011;6006;49.696;8.662;2023-07-29T02:05:32;2.35;;;1.58;;
11893;SDS011;6006;49.696;8.662;2023-07-29T02:07:58;3.67;;;1.80;;
11893;SDS011;6006;49.696;8.662;2023-07-29T02:10:25;1.50;;;1.40;;
11893;SDS011;6006;49.696;8.662;2023-07-29T02:12:53;1.38;;;1.27;;
11893;SDS011;6006;49.696;8.662;2023-07-29T02:15:20;1.00;;;1.00;;
11893;SDS011;6006;49.696;8.662;2023-07-29T02:17:49;1.50;;;1.40;;
11893;SDS011;6006;49.696;8.662;2023-07-29T02:20:16;1.58;;;1.33;;
11893;SDS011;6006;49.696;8.662;2023-07-29T02:22:43;1.55;;;1.45;;
11893;SDS011;6006;49.696;8.662;2023-07-29T02:25:10;2.10;;;1.35;;
11893;SDS011;6006;49.696;8.662;2023-07-29T02:27:37;1.30;;;1.30;;
11893;SDS011;6006;49.696;8.662;2023-07-29T02:30:06;1.52;;;1.42;;
11893;SDS011;6006;49.696;8.662;2023-07-29T02:32:34;3.08;;;1.27;;
11893;SDS011;6006;49.696;8.662;2023-07-29T02:35:01;2.72;;;1.50;;
11893;SDS011;6006;49.696;8.662;2023-07-29T02:37:28;1.38;;;1.27;;
11893;SDS011;6006;49.696;8.662;2023-07-29T02:39:55;1.30;;;1.23;;
11893;SDS011;6006;49.696;8.662;2023-07-29T02:42:22;1.35;;;1.30;;
11893;SDS011;6006;49.696;8.662;2023-07-29T02:44:49;1.10;;;1.10;;
11893;SDS011;6006;49.696;8.662;2023-07-29T02:47:17;2.00;;;1.10;;
11893;SDS011;6006;49.696;8.662;2023-07-29T02:49:44;1.60;;;1.10;;
11893;SDS011;6006;49.696;8.662;2023-07-29T02:52:11;1.55;;;1.33;;
11893;SDS011;6006;49.696;8.662;2023-07-29T02:54:38;1.50;;;1.13;;
11893;SDS011;6006;49.696;8.662;2023-07-29T02:57:05;2.50;;;1.33;;
11893;SDS011;6006;49.696;8.662;2023-07-29T02:59:31;2.28;;;1.40;;
11893;SDS011;6006;49.696;8.662;2023-07-29T03:01:58;2.40;;;1.15;;
11893;SDS011;6006;49.696;8.662;2023-07-29T03:04:26;2.25;;;1.15;;
11893;SDS011;6006;49.696;8.662;2023-07-29T03:06:53;2.58;;;1.33;;
11893;SDS011;6006;49.696;8.662;2023-07-29T03:09:20;1.38;;;1.20;;
11893;SDS011;6006;49.696;8.662;2023-07-29T03:11:47;1.75;;;1.33;;
11893;SDS011;6006;49.696;8.662;2023-07-29T03:14:14;1.30;;;1.20;;
11893;SDS011;6006;49.696;8.662;2023-07-29T03:16:41;3.60;;;1.38;;
11893;SDS011;6006;49.696;8.662;2023-07-29T03:19:08;1.63;;;1.55;;
11893;SDS011;6006;49.696;8.662;2023-07-29T03:21:37;2.25;;;1.67;;
11893;SDS011;6006;49.696;8.662;2023-07-29T03:24:04;1.70;;;1.60;;
11893;SDS011;6006;49.696;8.662;2023-07-29T03:26:32;2.13;;;1.35;;
11893;SDS011;6006;49.696;8.662;2023-07-29T03:28:58;3.88;;;1.60;;
11893;SDS011;6006;49.696;8.662;2023-07-29T03:31:25;2.03;;;1.90;;
11893;SDS011;6006;49.696;8.662;2023-07-29T03:33:52;1.80;;;1.70;;
11893;SDS011;6006;49.696;8.662;2023-07-29T03:36:20;1.65;;;1.55;;
11893;SDS011;6006;49.696;8.662;2023-07-29T03:38:49;1.70;;;1.60;;
11893;SDS011;6006;49.696;8.662;2023-07-29T03:41:15;2.40;;;1.75;;
11893;SDS011;6006;49.696;8.662;2023-07-29T03:43:42;2.00;;;1.77;;
11893;SDS011;6006;49.696;8.662;2023-07-29T03:46:09;3.40;;;1.70;;
11893;SDS011;6006;49.696;8.662;2023-07-29T03:48:36;2.38;;;1.65;;
11893;SDS011;6006;49.696;8.662;2023-07-29T03:51:03;1.95;;;1.50;;
11893;SDS011;6006;49.696;8.662;2023-07-29T03:53:30;1.58;;;1.48;;
11893;SDS011;6006;49.696;8.662;2023-07-29T03:55:58;3.70;;;1.98;;
11893;SDS011;6006;49.696;8.662;2023-07-29T03:58:25;2.35;;;1.80;;
11893;SDS011;6006;49.696;8.662;2023-07-29T04:00:52;2.20;;;2.00;;
11893;SDS011;6006;49.696;8.662;2023-07-29T04:03:19;1.90;;;1.60;;
11893;SDS011;6006;49.696;8.662;2023-07-29T04:05:45;2.15;;;1.67;;
11893;SDS011;6006;49.696;8.662;2023-07-29T04:08:12;3.20;;;1.90;;
11893;SDS011;6006;49.696;8.662;2023-07-29T04:10:39;2.92;;;1.83;;
11893;SDS011;6006;49.696;8.662;2023-07-29T04:13:07;1.85;;;1.75;;
11893;SDS011;6006;49.696;8.662;2023-07-29T04:15:34;1.80;;;1.70;;
11893;SDS011;6006;49.696;8.662;2023-07-29T04:18:01;1.67;;;1.58;;
11893;SDS011;6006;49.696;8.662;2023-07-29T04:20:29;1.77;;;1.33;;
11893;SDS011;6006;49.696;8.662;2023-07-29T04:22:55;2.00;;;1.90;;
11893;SDS011;6006;49.696;8.662;2023-07-29T04:25:22;1.48;;;1.38;;
11893;SDS011;6006;49.696;8.662;2023-07-29T04:27:49;2.03;;;1.70;;
11893;SDS011;6006;49.696;8.662;2023-07-29T04:30:17;2.80;;;1.63;;
11893;SDS011;6006;49.696;8.662;2023-07-29T04:32:44;2.90;;;1.40;;
11893;SDS011;6006;49.696;8.662;2023-07-29T04:35:13;3.67;;;1.70;;
11893;SDS011;6006;49.696;8.662;2023-07-29T04:37:40;2.50;;;1.55;;
11893;SDS011;6006;49.696;8.662;2023-07-29T04:40:07;2.35;;;1.55;;
11893;SDS011;6006;49.696;8.662;2023-07-29T04:42:36;3.25;;;1.38;;
11893;SDS011;6006;49.696;8.662;2023-07-29T04:45:03;1.67;;;1.27;;
11893;SDS011;6006;49.696;8.662;2023-07-29T04:47:32;2.17;;;1.38;;
11893;SDS011;6006;49.696;8.662;2023-07-29T04:49:59;3.13;;;1.60;;
11893;SDS011;6006;49.696;8.662;2023-07-29T04:52:26;1.73;;;1.40;;
11893;SDS011;6006;49.696;8.662;2023-07-29T04:54:53;1.88;;;1.52;;
11893;SDS011;6006;49.696;8.662;2023-07-29T04:57:20;2.53;;;1.42;;
11893;SDS011;6006;49.696;8.662;2023-07-29T04:59:46;2.53;;;1.30;;
11893;SDS011;6006;49.696;8.662;2023-07-29T05:02:13;1.55;;;1.20;;
11893;SDS011;6006;49.696;8.662;2023-07-29T05:04:42;1.40;;;1.30;;
11893;SDS011;6006;49.696;8.662;2023-07-29T05:07:08;1.42;;;1.40;;
11893;SDS011;6006;49.696;8.662;2023-07-29T05:09:35;1.83;;;1.50;;
11893;SDS011;6006;49.696;8.662;2023-07-29T05:12:04;1.70;;;1.60;;
11893;SDS011;6006;49.696;8.662;2023-07-29T05:14:33;1.25;;;1.17;;
11893;SDS011;6006;49.696;8.662;2023-07-29T05:17:00;3.00;;;1.38;;
11893;SDS011;6006;49.696;8.662;2023-07-29T05:19:27;1.10;;;1.10;;
11893;SDS011;6006;49.696;8.662;2023-07-29T05:21:55;1.35;;;1.20;;
11893;SDS011;6006;49.696;8.662;2023-07-29T05:24:22;1.17;;;1.13;;
11893;SDS011;6006;49.696;8.662;2023-07-29T05:26:49;1.77;;;1.67;;
11893;SDS011;6006;49.696;8.662;2023-07-29T05:29:16;1.63;;;1.52;;
11893;SDS011;6006;49.696;8.662;2023-07-29T05:31:43;2.35;;;1.52;;
11893;SDS011;6006;49.696;8.662;2023-07-29T05:34:10;1.77;;;1.67;;
11893;SDS011;6006;49.696;8.662;2023-07-29T05:36:36;1.60;;;1.50;;
11893;SDS011;6006;49.696;8.662;2023-07-29T05:39:05;2.05;;;1.70;;
11893;SDS011;6006;49.696;8.662;2023-07-29T05:41:33;1.95;;;1.83;;
11893;SDS011;6006;49.696;8.662;2023-07-29T05:44:00;1.80;;;1.70;;
11893;SDS011;6006;49.696;8.662;2023-07-29T05:46:27;2.22;;;2.13;;
11893;SDS011;6006;49.696;8.662;2023-07-29T05:48:54;2.03;;;1.90;;
11893;SDS011;6006;49.696;8.662;2023-07-29T05:51:21;2.10;;;1.75;;
11893;SDS011;6006;49.696;8.662;2023-07-29T05:53:48;2.03;;;1.92;;
11893;SDS011;6006;49.696;8.662;2023-07-29T05:56:16;2.17;;;2.08;;
11893;SDS011;6006;49.696;8.662;2023-07-29T05:58:43;1.80;;;1.70;;
11893;SDS011;6006;49.696;8.662;2023-07-29T06:01:10;1.83;;;1.73;;
11893;SDS011;6006;49.696;8.662;2023-07-29T06:03:37;1.95;;;1.80;;
11893;SDS011;6006;49.696;8.662;2023-07-29T06:06:04;1.90;;;1.80;;
11893;SDS011;6006;49.696;8.662;2023-07-29T06:08:30;1.77;;;1.67;;
11893;SDS011;6006;49.696;8.662;2023-07-29T06:10:59;1.92;;;1.83;;
11893;SDS011;6006;49.696;8.662;2023-07-29T06:13:27;1.95;;;1.85;;
11893;SDS011;6006;49.696;8.662;2023-07-29T06:15:54;2.17;;;1.80;;
11893;SDS011;6006;49.696;8.662;2023-07-29T06:18:21;2.15;;;1.95;;
11893;SDS011;6006;49.696;8.662;2023-07-29T06:20:48;1.70;;;1.60;;
11893;SDS011;6006;49.696;8.662;2023-07-29T06:23:15;1.55;;;1.42;;
11893;SDS011;6006;49.696;8.662;2023-07-29T06:25:42;1.17;;;1.15;;
11893;SDS011;6006;49.696;8.662;2023-07-29T06:28:09;1.30;;;1.20;;
11893;SDS011;6006;49.696;8.662;2023-07-29T06:30:38;1.27;;;1.13;;
11893;SDS011;6006;49.696;8.662;2023-07-29T06:33:05;1.05;;;1.05;;
11893;SDS011;6006;49.696;8.662;2023-07-29T06:35:32;1.00;;;1.00;;
11893;SDS011;6006;49.696;8.662;2023-07-29T06:37:59;1.27;;;1.23;;
11893;SDS011;6006;49.696;8.662;2023-07-29T06:40:26;1.23;;;1.02;;
11893;SDS011;6006;49.696;8.662;2023-07-29T06:42:53;0.85;;;0.85;;
11893;SDS011;6006;49.696;8.662;2023-07-29T06:45:22;0.80;;;0.80;;
11893;SDS011;6006;49.696;8.662;2023-07-29T06:47:51;0.88;;;0.85;;
11893;SDS011;6006;49.696;8.662;2023-07-29T06:50:18;0.70;;;0.70;;
11893;SDS011;6006;49.696;8.662;2023-07-29T06:52:45;1.10;;;1.10;;
11893;SDS011;6006;49.696;8.662;2023-07-29T06:55:11;0.73;;;0.73;;
11893;SDS011;6006;49.696;8.662;2023-07-29T06:57:38;1.10;;;1.10;;
11893;SDS011;6006;49.696;8.662;2023-07-29T07:00:06;0.93;;;0.93;;
11893;SDS011;6006;49.696;8.662;2023-07-29T07:02:34;1.13;;;1.02;;
11893;SDS011;6006;49.696;8.662;2023-07-29T07:05:02;4.68;;;1.40;;
11893;SDS011;6006;49.696;8.662;2023-07-29T07:07:30;4.15;;;1.83;;
11893;SDS011;6006;49.696;8.662;2023-07-29T07:09:57;7.32;;;1.98;;
11893;SDS011;6006;49.696;8.662;2023-07-29T07:12:24;5.07;;;1.27;;
11893;SDS011;6006;49.696;8.662;2023-07-29T07:14:50;5.57;;;1.55;;
11893;SDS011;6006;49.696;8.662;2023-07-29T07:17:17;6.50;;;2.25;;
11893;SDS011;6006;49.696;8.662;2023-07-29T07:19:44;4.07;;;1.33;;
11893;SDS011;6006;49.696;8.662;2023-07-29T07:22:13;1.23;;;0.95;;
11893;SDS011;6006;49.696;8.662;2023-07-29T07:24:40;1.55;;;0.70;;
11893;SDS011;6006;49.696;8.662;2023-07-29T07:27:07;3.05;;;1.33;;
11893;SDS011;6006;49.696;8.662;2023-07-29T07:29:34;1.25;;;1.00;;
11893;SDS011;6006;49.696;8.662;2023-07-29T07:32:01;1.27;;;0.90;;
11893;SDS011;6006;49.696;8.662;2023-07-29T07:34:28;2.55;;;1.30;;
11893;SDS011;6006;49.696;8.662;2023-07-29T07:36:55;4.20;;;3.35;;
11893;SDS011;6006;49.696;8.662;2023-07-29T07:39:23;6.82;;;4.85;;
11893;SDS011;6006;49.696;8.662;2023-07-29T07:41:50;3.95;;;1.98;;
11893;SDS011;6006;49.696;8.662;2023-07-29T07:44:17;3.03;;;1.85;;
11893;SDS011;6006;49.696;8.662;2023-07-29T07:46:44;3.45;;;2.10;;
11893;SDS011;6006;49.696;8.662;2023-07-29T07:49:11;3.88;;;3.20;;
11893;SDS011;6006;49.696;8.662;2023-07-29T07:51:39;2.95;;;2.80;;
11893;SDS011;6006;49.696;8.662;2023-07-29T07:54:06;4.32;;;2.88;;
11893;SDS011;6006;49.696;8.662;2023-07-29T07:56:34;5.00;;;3.00;;
11893;SDS011;6006;49.696;8.662;2023-07-29T07:59:01;3.67;;;3.38;;
11893;SDS011;6006;49.696;8.662;2023-07-29T08:01:28;2.88;;;2.63;;
11893;SDS011;6006;49.696;8.662;2023-07-29T08:04:01;3.45;;;2.80;;
11893;SDS011;6006;49.696;8.662;2023-07-29T08:06:28;2.85;;;2.42;;
11893;SDS011;6006;49.696;8.662;2023-07-29T08:08:55;3.10;;;2.28;;
11893;SDS011;6006;49.696;8.662;2023-07-29T08:11:22;3.25;;;2.63;;
11893;SDS011;6006;49.696;8.662;2023-07-29T08:13:51;2.00;;;1.90;;
11893;SDS011;6006;49.696;8.662;2023-07-29T08:16:18;2.45;;;2.30;;
11893;SDS011;6006;49.696;8.662;2023-07-29T08:18:45;2.65;;;2.45;;
11893;SDS011;6006;49.696;8.662;2023-07-29T08:21:12;3.03;;;2.83;;
11893;SDS011;6006;49.696;8.662;2023-07-29T08:23:39;1.90;;;1.80;;
11893;SDS011;6006;49.696;8.662;2023-07-29T08:26:06;3.25;;;1.92;;
11893;SDS011;6006;49.696;8.662;2023-07-29T08:28:33;1.60;;;1.50;;
11893;SDS011;6006;49.696;8.662;2023-07-29T08:31:03;1.50;;;1.40;;
11893;SDS011;6006;49.696;8.662;2023-07-29T08:33:30;4.32;;;1.25;;
11893;SDS011;6006;49.696;8.662;2023-07-29T08:35:58;1.45;;;1.27;;
11893;SDS011;6006;49.696;8.662;2023-07-29T08:38:25;1.60;;;1.23;;
11893;SDS011;6006;49.696;8.662;2023-07-29T08:40:54;0.73;;;0.73;;
11893;SDS011;6006;49.696;8.662;2023-07-29T08:43:28;1.35;;;0.80;;
11893;SDS011;6006;49.696;8.662;2023-07-29T08:45:57;0.60;;;0.60;;
11893;SDS011;6006;49.696;8.662;2023-07-29T08:48:28;1.45;;;0.80;;
11893;SDS011;6006;49.696;8.662;2023-07-29T08:50:59;1.52;;;0.80;;
11893;SDS011;6006;49.696;8.662;2023-07-29T08:53:27;0.85;;;0.85;;
11893;SDS011;6006;49.696;8.662;2023-07-29T08:55:54;0.60;;;0.60;;
11893;SDS011;6006;49.696;8.662;2023-07-29T08:58:22;2.95;;;0.90;;
11893;SDS011;6006;49.696;8.662;2023-07-29T09:00:50;0.65;;;0.63;;
11893;SDS011;6006;49.696;8.662;2023-07-29T09:03:17;0.57;;;0.57;;
11893;SDS011;6006;49.696;8.662;2023-07-29T09:05:45;0.38;;;0.38;;
11893;SDS011;6006;49.696;8.662;2023-07-29T09:08:13;1.65;;;0.40;;
11893;SDS011;6006;49.696;8.662;2023-07-29T09:10:40;0.40;;;0.40;;
11893;SDS011;6006;49.696;8.662;2023-07-29T09:13:07;1.40;;;0.60;;
11893;SDS011;6006;49.696;8.662;2023-07-29T09:15:35;1.38;;;0.43;;
11893;SDS011;6006;49.696;8.662;2023-07-29T09:18:09;1.65;;;0.70;;
11893;SDS011;6006;49.696;8.662;2023-07-29T09:20:37;1.40;;;0.65;;
11893;SDS011;6006;49.696;8.662;2023-07-29T09:23:07;2.25;;;0.65;;
11893;SDS011;6006;49.696;8.662;2023-07-29T09:25:35;0.68;;;0.68;;
11893;SDS011;6006;49.696;8.662;2023-07-29T09:28:07;0.60;;;0.60;;
11893;SDS011;6006;49.696;8.662;2023-07-29T09:30:35;1.15;;;0.70;;
11893;SDS011;6006;49.696;8.662;2023-07-29T09:33:03;0.85;;;0.55;;
11893;SDS011;6006;49.696;8.662;2023-07-29T09:35:30;1.20;;;0.60;;
11893;SDS011;6006;49.696;8.662;2023-07-29T09:37:59;1.10;;;0.90;;
11893;SDS011;6006;49.696;8.662;2023-07-29T09:40:28;1.45;;;0.60;;
11893;SDS011;6006;49.696;8.662;2023-07-29T09:43:01;2.70;;;0.70;;
11893;SDS011;6006;49.696;8.662;2023-07-29T09:45:29;0.88;;;0.73;;
11893;SDS011;6006;49.696;8.662;2023-07-29T09:47:57;0.50;;;0.50;;
11893;SDS011;6006;49.696;8.662;2023-07-29T09:50:24;0.98;;;0.85;;
11893;SDS011;6006;49.696;8.662;2023-07-29T09:53:00;1.30;;;0.95;;
11893;SDS011;6006;49.696;8.662;2023-07-29T09:55:32;2.05;;;0.93;;
11893;SDS011;6006;49.696;8.662;2023-07-29T09:58:00;1.08;;;0.98;;
11893;SDS011;6006;49.696;8.662;2023-07-29T10:00:32;1.85;;;0.93;;
11893;SDS011;6006;49.696;8.662;2023-07-29T10:02:59;2.35;;;1.40;;
11893;SDS011;6006;49.696;8.662;2023-07-29T10:05:27;2.08;;;1.58;;
11893;SDS011;6006;49.696;8.662;2023-07-29T10:07:55;1.98;;;1.60;;
11893;SDS011;6006;49.696;8.662;2023-07-29T10:10:23;2.13;;;1.60;;
11893;SDS011;6006;49.696;8.662;2023-07-29T10:12:51;1.73;;;1.55;;
11893;SDS011;6006;49.696;8.662;2023-07-29T10:15:19;2.45;;;1.70;;
11893;SDS011;6006;49.696;8.662;2023-07-29T10:17:47;1.40;;;1.30;;
11893;SDS011;6006;49.696;8.662;2023-07-29T10:20:16;1.48;;;1.38;;
11893;SDS011;6006;49.696;8.662;2023-07-29T10:22:43;1.77;;;1.50;;
11893;SDS011;6006;49.696;8.662;2023-07-29T10:25:13;1.40;;;1.30;;
11893;SDS011;6006;49.696;8.662;2023-07-29T10:27:43;2.45;;;1.20;;
11893;SDS011;6006;49.696;8.662;2023-07-29T10:30:17;1.80;;;1.40;;
11893;SDS011;6006;49.696;8.662;2023-07-29T10:32:45;2.80;;;1.30;;
11893;SDS011;6006;49.696;8.662;2023-07-29T10:35:12;1.15;;;1.15;;
11893;SDS011;6006;49.696;8.662;2023-07-29T10:37:39;1.60;;;1.50;;
11893;SDS011;6006;49.696;8.662;2023-07-29T10:40:08;1.45;;;1.20;;
11893;SDS011;6006;49.696;8.662;2023-07-29T10:42:36;1.10;;;1.10;;
11893;SDS011;6006;49.696;8.662;2023-07-29T10:45:18;2.13;;;1.10;;
11893;SDS011;6006;49.696;8.662;2023-07-29T10:47:46;2.33;;;1.40;;
11893;SDS011;6006;49.696;8.662;2023-07-29T10:50:17;1.13;;;1.10;;
11893;SDS011;6006;49.696;8.662;2023-07-29T10:52:48;3.85;;;1.70;;
11893;SDS011;6006;49.696;8.662;2023-07-29T10:55:26;1.10;;;1.10;;
11893;SDS011;6006;49.696;8.662;2023-07-29T10:58:08;1.10;;;1.10;;
11893;SDS011;6006;49.696;8.662;2023-07-29T11:00:40;1.73;;;1.20;;
11893;SDS011;6006;49.696;8.662;2023-07-29T11:03:09;1.10;;;1.10;;
11893;SDS011;6006;49.696;8.662;2023-07-29T11:05:41;1.00;;;1.00;;
11893;SDS011;6006;49.696;8.662;2023-07-29T11:08:16;2.05;;;1.10;;
11893;SDS011;6006;49.696;8.662;2023-07-29T11:10:44;1.40;;;1.30;;
11893;SDS011;6006;49.696;8.662;2023-07-29T11:13:26;1.17;;;1.10;;
11893;SDS011;6006;49.696;8.662;2023-07-29T11:15:55;1.65;;;0.98;;
11893;SDS011;6006;49.696;8.662;2023-07-29T11:18:24;1.55;;;1.00;;
11893;SDS011;6006;49.696;8.662;2023-07-29T11:20:54;1.70;;;1.40;;
11893;SDS011;6006;49.696;8.662;2023-07-29T11:23:28;1.60;;;1.50;;
11893;SDS011;6006;49.696;8.662;2023-07-29T11:25:56;1.20;;;1.10;;
11893;SDS011;6006;49.696;8.662;2023-07-29T11:28:23;1.10;;;1.08;;
11893;SDS011;6006;49.696;8.662;2023-07-29T11:30:51;1.20;;;1.13;;
11893;SDS011;6006;49.696;8.662;2023-07-29T11:33:21;2.97;;;1.60;;
11893;SDS011;6006;49.696;8.662;2023-07-29T11:35:49;3.17;;;1.15;;
11893;SDS011;6006;49.696;8.662;2023-07-29T11:38:16;1.98;;;1.20;;
11893;SDS011;6006;49.696;8.662;2023-07-29T11:40:53;2.13;;;1.30;;
11893;SDS011;6006;49.696;8.662;2023-07-29T11:43:21;1.95;;;1.10;;
11893;SDS011;6006;49.696;8.662;2023-07-29T11:45:48;1.30;;;1.20;;
11893;SDS011;6006;49.696;8.662;2023-07-29T11:48:15;0.90;;;0.88;;
11893;SDS011;6006;49.696;8.662;2023-07-29T11:50:46;1.48;;;1.38;;
11893;SDS011;6006;49.696;8.662;2023-07-29T11:53:14;1.08;;;1.08;;
11893;SDS011;6006;49.696;8.662;2023-07-29T11:55:41;1.77;;;1.10;;
11893;SDS011;6006;49.696;8.662;2023-07-29T11:58:08;1.30;;;1.30;;
11893;SDS011;6006;49.696;8.662;2023-07-29T12:00:35;1.60;;;1.20;;
11893;SDS011;6006;49.696;8.662;2023-07-29T12:03:06;3.65;;;1.23;;
11893;SDS011;6006;49.696;8.662;2023-07-29T12:05:34;1.95;;;1.10;;
11893;SDS011;6006;49.696;8.662;2023-07-29T12:08:03;1.38;;;1.30;;
11893;SDS011;6006;49.696;8.662;2023-07-29T12:10:30;1.20;;;1.00;;
11893;SDS011;6006;49.696;8.662;2023-07-29T12:12:57;3.05;;;1.30;;
11893;SDS011;6006;49.696;8.662;2023-07-29T12:15:25;1.52;;;1.40;;
11893;SDS011;6006;49.696;8.662;2023-07-29T12:17:54;1.25;;;1.20;;
11893;SDS011;6006;49.696;8.662;2023-07-29T12:20:22;1.38;;;0.93;;
11893;SDS011;6006;49.696;8.662;2023-07-29T12:22:51;1.15;;;1.15;;
11893;SDS011;6006;49.696;8.662;2023-07-29T12:25:21;1.63;;;1.27;;
11893;SDS011;6006;49.696;8.662;2023-07-29T12:27:48;1.90;;;1.27;;
11893;SDS011;6006;49.696;8.662;2023-07-29T12:30:15;1.40;;;1.30;;
11893;SDS011;6006;49.696;8.662;2023-07-29T12:32:46;1.27;;;1.27;;
11893;SDS011;6006;49.696;8.662;2023-07-29T12:35:13;2.03;;;1.10;;
11893;SDS011;6006;49.696;8.662;2023-07-29T12:37:43;1.20;;;1.05;;
11893;SDS011;6006;49.696;8.662;2023-07-29T12:40:24;1.08;;;1.08;;
11893;SDS011;6006;49.696;8.662;2023-07-29T12:42:52;0.93;;;0.93;;
11893;SDS011;6006;49.696;8.662;2023-07-29T12:45:19;2.60;;;1.40;;
11893;SDS011;6006;49.696;8.662;2023-07-29T12:47:48;1.00;;;1.00;;
11893;SDS011;6006;49.696;8.662;2023-07-29T12:50:15;2.95;;;1.20;;
11893;SDS011;6006;49.696;8.662;2023-07-29T12:52:43;1.10;;;0.95;;
11893;SDS011;6006;49.696;8.662;2023-07-29T12:55:09;1.40;;;1.35;;
11893;SDS011;6006;49.696;8.662;2023-07-29T12:57:40;1.70;;;1.05;;
11893;SDS011;6006;49.696;8.662;2023-07-29T13:00:08;1.40;;;1.30;;
11893;SDS011;6006;49.696;8.662;2023-07-29T13:02:37;1.25;;;1.05;;
11893;SDS011;6006;49.696;8.662;2023-07-29T13:05:04;1.60;;;0.90;;
11893;SDS011;6006;49.696;8.662;2023-07-29T13:07:32;4.13;;;1.10;;
11893;SDS011;6006;49.696;8.662;2023-07-29T13:09:59;1.23;;;1.10;;
11893;SDS011;6006;49.696;8.662;2023-07-29T13:12:26;1.00;;;1.00;;
11893;SDS011;6006;49.696;8.662;2023-07-29T13:14:55;0.95;;;0.95;;
11893;SDS011;6006;49.696;8.662;2023-07-29T13:17:22;0.98;;;0.98;;
11893;SDS011;6006;49.696;8.662;2023-07-29T13:19:52;1.23;;;1.00;;
11893;SDS011;6006;49.696;8.662;2023-07-29T13:22:19;1.48;;;1.02;;
11893;SDS011;6006;49.696;8.662;2023-07-29T13:24:46;0.93;;;0.93;;
11893;SDS011;6006;49.696;8.662;2023-07-29T13:27:13;0.95;;;0.95;;
11893;SDS011;6006;49.696;8.662;2023-07-29T13:29:43;1.00;;;1.00;;
11893;SDS011;6006;49.696;8.662;2023-07-29T13:32:12;1.10;;;0.95;;
11893;SDS011;6006;49.696;8.662;2023-07-29T13:34:39;1.23;;;1.00;;
11893;SDS011;6006;49.696;8.662;2023-07-29T13:37:06;1.08;;;1.00;;
11893;SDS011;6006;49.696;8.662;2023-07-29T13:39:33;1.17;;;1.17;;
11893;SDS011;6006;49.696;8.662;2023-07-29T13:42:00;1.10;;;1.00;;
11893;SDS011;6006;49.696;8.662;2023-07-29T13:44:27;1.10;;;1.00;;
11893;SDS011;6006;49.696;8.662;2023-07-29T13:46:54;1.13;;;0.90;;
11893;SDS011;6006;49.696;8.662;2023-07-29T13:49:22;0.88;;;0.88;;
11893;SDS011;6006;49.696;8.662;2023-07-29T13:51:49;1.42;;;1.00;;
11893;SDS011;6006;49.696;8.662;2023-07-29T13:54:16;0.95;;;0.95;;
11893;SDS011;6006;49.696;8.662;2023-07-29T13:56:44;1.02;;;1.00;;
11893;SDS011;6006;49.696;8.662;2023-07-29T13:59:10;1.15;;;1.10;;
11893;SDS011;6006;49.696;8.662;2023-07-29T14:01:37;1.50;;;1.05;;
11893;SDS011;6006;49.696;8.662;2023-07-29T14:04:04;0.85;;;0.85;;
11893;SDS011;6006;49.696;8.662;2023-07-29T14:06:33;1.80;;;1.13;;
11893;SDS011;6006;49.696;8.662;2023-07-29T14:09:00;1.08;;;1.00;;
11893;SDS011;6006;49.696;8.662;2023-07-29T14:11:27;0.80;;;0.80;;
11893;SDS011;6006;49.696;8.662;2023-07-29T14:13:54;1.20;;;0.90;;
11893;SDS011;6006;49.696;8.662;2023-07-29T14:16:20;1.73;;;1.23;;
11893;SDS011;6006;49.696;8.662;2023-07-29T14:18:47;1.52;;;1.00;;
11893;SDS011;6006;49.696;8.662;2023-07-29T14:21:14;1.83;;;1.08;;
11893;SDS011;6006;49.696;8.662;2023-07-29T14:23:42;2.22;;;1.30;;
11893;SDS011;6006;49.696;8.662;2023-07-29T14:26:09;1.10;;;1.10;;
11893;SDS011;6006;49.696;8.662;2023-07-29T14:28:38;2.03;;;1.17;;
11893;SDS011;6006;49.696;8.662;2023-07-29T14:31:05;2.08;;;1.23;;
11893;SDS011;6006;49.696;8.662;2023-07-29T14:33:32;1.33;;;1.23;;
11893;SDS011;6006;49.696;8.662;2023-07-29T14:35:59;1.77;;;1.20;;
11893;SDS011;6006;49.696;8.662;2023-07-29T14:38:28;2.00;;;1.08;;
11893;SDS011;6006;49.696;8.662;2023-07-29T14:40:56;0.93;;;0.93;;
11893;SDS011;6006;49.696;8.662;2023-07-29T14:43:23;1.50;;;1.40;;
11893;SDS011;6006;49.696;8.662;2023-07-29T14:45:50;0.98;;;0.98;;
11893;SDS011;6006;49.696;8.662;2023-07-29T14:48:17;2.55;;;1.05;;
11893;SDS011;6006;49.696;8.662;2023-07-29T14:50:44;1.45;;;1.35;;
11893;SDS011;6006;49.696;8.662;2023-07-29T14:53:11;1.10;;;1.05;;
11893;SDS011;6006;49.696;8.662;2023-07-29T14:55:38;2.90;;;1.38;;
11893;SDS011;6006;49.696;8.662;2023-07-29T14:58:06;1.27;;;1.17;;
11893;SDS011;6006;49.696;8.662;2023-07-29T15:00:33;1.90;;;1.15;;
11893;SDS011;6006;49.696;8.662;2023-07-29T15:03:00;1.38;;;1.27;;
11893;SDS011;6006;49.696;8.662;2023-07-29T15:05:27;1.33;;;1.20;;